Airfield :
LOGIN :

Register | Disclaimer

   EN    FR    IT 

 










Legend :    VFR   Marginal VFR   IFR   Intensive IFR   Very Intensive IFR
Visi :
Ceiling :
>= 8 km
>= 3000ft
5 to 8 km
1000 to 3000 ft
1500m to 5 km
500 to 1000 ft
800 to 1500m
200 to 500 ft
< 800m
< 200 ft
Symbols :   Thunderstorms  Fog  Heavy snow  Heavy precipitations  Wind > 20 kt
SIGMETs :     Misc.  Thunderstorms  Icing  Turbulence  Mountain Waves  Volcanic Ashes






- Airport Elevation : 15 ft
- IATA code : FCO


LIRF - Roma Leonardo da Vinci Fiumicino

CURRENT METAR :
  • 061250Z 27013KT CAVOK 28/18 Q1012 NOSIG

EXPIRED METARs :
  • 061220Z 26014KT CAVOK 29/17 Q1012 NOSIG
  • 061150Z 26014KT CAVOK 29/15 Q1012 NOSIG
  • 061120Z 27013KT CAVOK 29/15 Q1012 NOSIG
  • 061050Z 28013KT CAVOK 28/16 Q1012 NOSIG
  • 061020Z 27011KT CAVOK 27/17 Q1012 NOSIG

TAF TAF LIRF
Valid from the 06 at 12:00 until the 07 at 18:00 UTC


061100Z 0612/0718 26016KT CAVOK
BECMG 0618/0620 02008KT
BECMG 0709/0711 27012KT



MET'MAP, your aeronautical weather chart ! - Copyright ORBIFLY December 2007 - Disclaimer

ORBIFLY MET'MAP TEAM :

Programming & Development : Alexandra Zaïnal
Concept & original design : Baudouin d'Aumeries
Assistance for programming : Marc-Olivier Méhu
Technical & hardware support : Manuel Goepfert

Contact : metmap@orbifly.com




SOURCES & CREDITS :

   NOAA